Time;durP1;ratioP1;P1;durP2;ratioP2;P2;SDS_P1;SDS_P2;PMS_P1;PMS_P2;Temp;Humidity;BMP_temperature;BMP_pressure;BME280_temperature;BME280_humidity;BME280_pressure;Samples;Min_cycle;Max_cycle;Signal;HPM_P1;HPM_P2
2022/01/15 00:03:57;;;;;;;41.00;18.07;;;;;;;1.50;100.00;97864.88;10370723;28;20197;-62
2022/01/15 00:08:57;;;;;;;38.80;17.77;;;;;;;1.63;100.00;97878.91;10371013;28;20218;-62
2022/01/15 00:14:12;;;;;;;44.30;18.40;;;;;;;1.52;100.00;97876.00;10370649;28;20197;-62
2022/01/15 00:19:15;;;;;;;54.17;18.87;;;;;;;1.51;100.00;97871.75;10368632;28;20228;-63
2022/01/15 00:24:15;;;;;;;46.80;18.20;;;;;;;1.36;100.00;97866.38;10370843;28;20268;-62
2022/01/15 00:29:16;;;;;;;49.23;19.10;;;;;;;1.44;100.00;97873.78;10370243;28;20582;-63
2022/01/15 00:34:16;;;;;;;47.40;18.97;;;;;;;1.58;100.00;97867.97;10370410;28;20577;-61
2022/01/15 00:39:16;;;;;;;41.27;16.60;;;;;;;1.51;100.00;97869.97;10370424;28;20225;-62
2022/01/15 00:44:17;;;;;;;44.37;17.97;;;;;;;1.43;100.00;97861.75;10370060;28;20264;-63
2022/01/15 00:49:18;;;;;;;40.20;17.83;;;;;;;1.61;100.00;97867.81;10370378;28;20209;-63
2022/01/15 00:54:18;;;;;;;35.20;16.23;;;;;;;1.46;100.00;97873.69;10369805;28;20216;-63
2022/01/15 00:59:18;;;;;;;39.10;17.70;;;;;;;1.56;100.00;97872.34;10370016;28;20232;-63
2022/01/15 01:04:19;;;;;;;35.43;17.77;;;;;;;1.48;100.00;97864.13;10369900;28;20188;-63
2022/01/15 01:09:21;;;;;;;34.33;16.87;;;;;;;1.58;100.00;97860.22;10375685;28;20201;-61
2022/01/15 01:24:58;;;;;;;41.63;19.07;;;;;;;1.43;100.00;97860.00;10376340;28;20189;-63
2022/01/15 01:30:37;;;;;;;46.17;19.63;;;;;;;1.52;100.00;97855.34;10376781;28;20233;-60
2022/01/15 01:35:37;;;;;;;39.57;17.50;;;;;;;1.49;100.00;97858.91;10374096;28;21018;-62
2022/01/15 01:40:40;;;;;;;46.40;18.23;;;;;;;1.42;100.00;97865.25;10376721;28;20231;-63
2022/01/15 01:45:45;;;;;;;41.70;17.77;;;;;;;1.42;100.00;97860.09;10376540;28;20236;-63
2022/01/15 01:50:46;;;;;;;38.13;17.10;;;;;;;1.49;100.00;97847.75;10376616;28;20656;-62
2022/01/15 01:55:46;;;;;;;37.33;17.50;;;;;;;1.35;100.00;97844.03;10376157;28;20212;-62
2022/01/15 02:00:46;;;;;;;36.37;16.67;;;;;;;1.52;100.00;97839.84;10375456;28;20233;-61
2022/01/15 02:05:47;;;;;;;36.10;17.10;;;;;;;1.39;100.00;97835.25;10375805;28;20687;-61
2022/01/15 02:10:47;;;;;;;35.17;15.50;;;;;;;1.40;100.00;97842.06;10376211;28;20644;-61
2022/01/15 02:15:48;;;;;;;36.27;15.67;;;;;;;1.42;100.00;97835.13;10376149;28;20196;-61
2022/01/15 02:21:02;;;;;;;37.50;16.20;;;;;;;1.42;100.00;97837.69;10373795;28;20699;-63
2022/01/15 02:26:05;;;;;;;36.20;16.23;;;;;;;1.58;100.00;97830.06;10374837;28;20224;-63
2022/01/15 02:31:08;;;;;;;42.10;16.97;;;;;;;1.49;100.00;97830.50;10374865;28;20201;-63
2022/01/15 02:36:17;;;;;;;34.50;15.43;;;;;;;1.49;100.00;97832.25;10374012;28;20697;-63
2022/01/15 02:41:29;;;;;;;35.90;14.60;;;;;;;1.32;100.00;97839.03;10373661;28;20221;-60
2022/01/15 02:51:35;;;;;;;28.13;13.57;;;;;;;1.37;100.00;97826.72;10374163;28;20240;-63
2022/01/15 02:56:40;;;;;;;34.30;14.03;;;;;;;1.32;100.00;97809.81;10373995;28;20247;-63
2022/01/15 03:01:41;;;;;;;32.60;13.90;;;;;;;1.26;100.00;97813.50;10373420;28;20707;-63
2022/01/15 03:06:41;;;;;;;30.10;13.67;;;;;;;1.10;100.00;97809.94;10373397;28;20223;-63
2022/01/15 03:11:42;;;;;;;33.20;13.23;;;;;;;1.18;100.00;97810.41;10373047;28;20185;-63
2022/01/15 03:16:42;;;;;;;27.57;11.97;;;;;;;1.17;100.00;97812.16;10372917;28;20209;-63
2022/01/15 03:21:42;;;;;;;28.43;12.13;;;;;;;1.17;100.00;97812.16;10372410;28;20229;-63
2022/01/15 03:26:43;;;;;;;22.57;11.70;;;;;;;1.30;100.00;97804.69;10372499;28;20240;-63
2022/01/15 03:31:44;;;;;;;22.07;11.93;;;;;;;1.16;100.00;97804.50;10372520;28;20228;-64
2022/01/15 03:36:44;;;;;;;32.17;12.10;;;;;;;1.23;100.00;97809.31;10372539;28;20224;-62
2022/01/15 03:41:45;;;;;;;26.83;12.30;;;;;;;1.27;100.00;97791.91;10372230;28;20563;-64
2022/01/15 03:46:45;;;;;;;29.17;13.10;;;;;;;1.16;100.00;97800.16;10371941;28;20588;-64
2022/01/15 03:51:46;;;;;;;28.07;11.27;;;;;;;1.21;100.00;97800.81;10371780;28;20690;-60
2022/01/15 03:56:46;;;;;;;28.83;12.80;;;;;;;1.10;100.00;97795.28;10371660;28;20754;-63
2022/01/15 04:01:47;;;;;;;26.07;11.83;;;;;;;1.17;100.00;97796.69;10371108;28;20250;-63
2022/01/15 04:06:47;;;;;;;25.63;10.97;;;;;;;1.11;100.00;97796.97;10369605;28;20228;-64
2022/01/15 04:11:48;;;;;;;27.30;12.37;;;;;;;1.09;100.00;97795.34;10370723;28;20199;-63
2022/01/15 04:16:48;;;;;;;25.40;10.97;;;;;;;1.25;100.00;97794.56;10371056;28;20299;-62
2022/01/15 04:21:48;;;;;;;27.23;11.07;;;;;;;1.22;100.00;97794.72;10370336;28;20232;-63
2022/01/15 04:26:49;;;;;;;23.23;10.10;;;;;;;1.16;100.00;97792.41;10397113;22;20232;-63
2022/01/15 04:31:51;;;;;;;22.40;10.17;;;;;;;1.15;100.00;97793.34;10411495;28;20194;-65
2022/01/15 04:36:53;;;;;;;20.33;9.70;;;;;;;1.01;100.00;97783.66;10411534;28;20294;-64
2022/01/15 04:41:53;;;;;;;21.00;10.13;;;;;;;1.15;100.00;97790.78;10410928;28;20588;-64
2022/01/15 04:46:54;;;;;;;21.90;9.33;;;;;;;1.19;100.00;97787.13;10411222;28;20230;-66
2022/01/15 04:51:54;;;;;;;20.93;8.53;;;;;;;1.22;100.00;97786.97;10411286;28;20195;-65
2022/01/15 04:56:55;;;;;;;25.63;8.90;;;;;;;1.28;100.00;97779.88;10410956;28;20730;-64
2022/01/15 05:01:55;;;;;;;27.83;8.20;;;;;;;1.23;100.00;97783.50;10410820;28;20353;-62
2022/01/15 05:06:55;;;;;;;22.50;8.20;;;;;;;1.04;100.00;97775.78;10410874;28;21009;-63
2022/01/15 05:12:02;;;;;;;16.97;8.07;;;;;;;1.17;100.00;97772.63;10410887;28;20192;-65
2022/01/15 05:17:03;;;;;;;17.67;7.50;;;;;;;1.16;100.00;97776.09;10410797;28;20212;-65
2022/01/15 05:22:03;;;;;;;19.13;6.27;;;;;;;1.11;100.00;97767.75;10410167;28;20223;-63
2022/01/15 05:27:04;;;;;;;13.23;6.40;;;;;;;0.95;100.00;97770.19;10410404;28;20271;-65
2022/01/15 05:32:04;;;;;;;20.53;7.53;;;;;;;1.02;100.00;97785.31;10410389;28;20195;-65
2022/01/15 05:37:05;;;;;;;20.37;8.27;;;;;;;0.93;100.00;97779.75;10410290;28;20240;-63
2022/01/15 05:42:05;;;;;;;29.20;8.80;;;;;;;0.98;100.00;97782.94;10410234;28;20219;-63
2022/01/15 05:47:07;;;;;;;19.43;7.67;;;;;;;1.02;100.00;97780.16;10410040;28;20243;-63
2022/01/15 05:52:07;;;;;;;19.47;8.17;;;;;;;0.99;100.00;97775.13;10410156;28;20192;-63
2022/01/15 05:57:08;;;;;;;29.23;7.77;;;;;;;0.95;100.00;97777.94;10416363;28;20246;-64
2022/01/15 06:02:08;;;;;;;23.40;8.00;;;;;;;0.95;100.00;97772.78;10417182;28;20235;-63
2022/01/15 06:07:08;;;;;;;19.50;6.50;;;;;;;0.95;100.00;97771.06;10417006;28;20211;-65
2022/01/15 06:12:09;;;;;;;18.70;5.63;;;;;;;1.01;100.00;97773.34;10416676;28;20203;-64
2022/01/15 06:17:10;;;;;;;26.03;6.73;;;;;;;0.83;100.00;97772.44;10416374;28;20220;-64
2022/01/15 06:22:10;;;;;;;18.33;6.60;;;;;;;0.89;100.00;97773.91;10416069;28;20650;-64
2022/01/15 06:27:11;;;;;;;21.57;8.33;;;;;;;0.88;100.00;97767.91;10416324;28;20595;-66
2022/01/15 06:32:12;;;;;;;23.80;7.97;;;;;;;0.83;100.00;97780.19;10415868;28;20187;-65
2022/01/15 06:37:12;;;;;;;17.70;7.10;;;;;;;0.95;100.00;97777.94;10415805;28;20207;-64
2022/01/15 06:42:13;;;;;;;18.17;7.07;;;;;;;0.93;100.00;97783.16;10415505;28;20231;-66
2022/01/15 06:47:13;;;;;;;27.20;7.27;;;;;;;0.65;100.00;97787.00;10415222;28;20253;-65
2022/01/15 06:52:13;;;;;;;20.37;6.07;;;;;;;0.59;100.00;97783.84;10415445;28;20192;-65
2022/01/15 06:57:14;;;;;;;23.13;6.83;;;;;;;0.40;100.00;97783.81;10415079;28;20211;-66
2022/01/15 07:02:14;;;;;;;22.03;7.40;;;;;;;0.50;100.00;97783.34;10414245;28;20252;-66
2022/01/15 07:07:14;;;;;;;20.60;6.30;;;;;;;0.68;100.00;97781.69;10414017;28;20268;-65
2022/01/15 07:12:15;;;;;;;20.80;6.50;;;;;;;0.74;100.00;97787.50;10414420;28;20192;-65
2022/01/15 07:17:15;;;;;;;26.77;7.27;;;;;;;0.73;100.00;97793.56;10413725;28;20265;-63
2022/01/15 07:22:16;;;;;;;26.03;6.57;;;;;;;0.67;100.00;97805.84;10413911;28;20234;-61
2022/01/15 07:27:16;;;;;;;27.43;6.37;;;;;;;0.78;100.00;97805.34;10412019;28;20243;-64
2022/01/15 07:32:16;;;;;;;21.23;6.40;;;;;;;0.92;100.00;97804.72;10410463;28;20196;-64
2022/01/15 07:37:17;;;;;;;30.43;6.57;;;;;;;0.80;100.00;97806.09;10411671;28;20294;-65
2022/01/15 07:42:18;;;;;;;23.63;6.23;;;;;;;0.92;100.00;97799.56;10411542;28;20223;-64
2022/01/15 07:47:18;;;;;;;18.70;5.80;;;;;;;0.89;100.00;97800.53;10411717;28;20208;-66
2022/01/15 07:52:19;;;;;;;19.10;5.97;;;;;;;0.82;100.00;97808.63;10411755;28;20191;-65
2022/01/15 07:57:19;;;;;;;19.00;6.80;;;;;;;0.85;100.00;97806.72;10412717;28;20351;-65
2022/01/15 08:02:19;;;;;;;24.20;5.80;;;;;;;0.96;100.00;97813.97;10405282;28;20224;-66
2022/01/15 08:07:20;;;;;;;25.27;6.10;;;;;;;1.06;100.00;97814.41;10410362;28;20319;-65
2022/01/15 08:12:22;;;;;;;20.07;6.13;;;;;;;1.19;100.00;97830.16;10411009;28;20184;-64
2022/01/15 08:17:22;;;;;;;19.77;5.47;;;;;;;1.10;100.00;97830.59;10409156;28;20216;-64
2022/01/15 08:22:22;;;;;;;25.87;5.93;;;;;;;1.15;100.00;97831.19;10410422;28;20196;-64
2022/01/15 08:27:23;;;;;;;18.73;5.13;;;;;;;1.42;100.00;97837.69;10410062;28;20645;-64
2022/01/15 08:32:23;;;;;;;24.07;5.50;;;;;;;1.15;100.00;97832.06;10409138;28;20560;-64
2022/01/15 08:37:23;;;;;;;12.80;3.93;;;;;;;1.22;100.00;97837.78;10407739;28;20662;-64
2022/01/15 08:42:24;;;;;;;20.60;4.40;;;;;;;1.18;100.00;97836.22;10408422;28;20196;-64
2022/01/15 08:47:25;;;;;;;16.70;4.33;;;;;;;1.33;100.00;97832.09;10408833;28;20219;-64
2022/01/15 08:52:25;;;;;;;14.83;4.80;;;;;;;1.42;100.00;97842.88;10409102;28;20192;-65
2022/01/15 08:57:26;;;;;;;27.23;7.73;;;;;;;1.42;100.00;97834.25;10409922;28;20215;-64
2022/01/15 09:02:26;;;;;;;23.17;5.97;;;;;;;1.37;100.00;97841.41;10409294;28;20184;-65
2022/01/15 09:07:26;;;;;;;16.43;5.83;;;;;;;1.43;100.00;97848.84;10408470;28;20631;-63
2022/01/15 09:12:27;;;;;;;23.93;5.80;;;;;;;1.39;100.00;97845.59;10409141;28;20203;-64
2022/01/15 09:17:28;;;;;;;22.30;5.73;;;;;;;1.56;100.00;97849.97;10407334;28;20223;-63
2022/01/15 09:22:28;;;;;;;30.53;6.23;;;;;;;1.39;100.00;97857.63;10406034;28;20184;-64
2022/01/15 09:32:50;;;;;;;22.13;3.77;;;;;;;1.40;100.00;97862.72;10412947;28;20191;-63
2022/01/15 09:37:51;;;;;;;20.00;4.27;;;;;;;1.44;100.00;97863.44;10408075;28;20297;-64
2022/01/15 09:42:52;;;;;;;25.27;5.70;;;;;;;1.50;100.00;97858.00;10410325;28;20199;-63
2022/01/15 09:47:56;;;;;;;29.37;9.77;;;;;;;1.40;100.00;97860.16;10409073;28;20572;-63
2022/01/15 09:52:57;;;;;;;27.53;8.60;;;;;;;1.38;100.00;97861.16;10406649;28;20200;-62
2022/01/15 09:57:57;;;;;;;43.60;13.90;;;;;;;1.29;100.00;97849.50;10406997;28;20656;-63
2022/01/15 10:02:57;;;;;;;32.70;8.90;;;;;;;1.38;100.00;97856.00;10407501;28;20208;-62
2022/01/15 10:08:05;;;;;;;41.47;10.00;;;;;;;1.31;100.00;97870.91;10412772;28;20277;-65
2022/01/15 10:13:17;;;;;;;42.17;9.00;;;;;;;1.17;100.00;97857.81;10412655;28;20196;-65
2022/01/15 10:18:19;;;;;;;28.77;5.73;;;;;;;1.62;100.00;97855.72;10413186;28;20216;-65
2022/01/15 10:23:21;;;;;;;32.63;7.33;;;;;;;1.74;100.00;97847.41;10411656;28;20185;-65
2022/01/15 10:28:23;;;;;;;20.10;4.60;;;;;;;1.99;100.00;97843.63;10411613;28;20262;-65
2022/01/15 10:33:24;;;;;;;22.10;4.80;;;;;;;2.23;100.00;97821.72;10432702;22;20288;-63
2022/01/15 10:38:33;;;;;;;20.50;3.90;;;;;;;2.00;100.00;97817.72;10372616;28;20233;-63
2022/01/15 10:43:34;;;;;;;13.50;3.33;;;;;;;2.07;100.00;97811.34;10371886;28;20221;-63
2022/01/15 10:48:35;;;;;;;27.67;3.83;;;;;;;2.13;100.00;97817.97;10373063;28;20189;-66
2022/01/15 10:53:40;;;;;;;30.23;3.97;;;;;;;2.57;100.00;97809.66;10372851;28;20608;-64
2022/01/15 10:58:42;;;;;;;18.87;2.87;;;;;;;2.87;100.00;97787.47;10372304;28;20989;-64
2022/01/15 11:03:45;;;;;;;25.93;4.03;;;;;;;2.07;100.00;97782.09;10372664;28;20252;-63
2022/01/15 11:08:50;;;;;;;18.63;4.07;;;;;;;2.81;100.00;97768.75;10372318;28;20220;-64
2022/01/15 11:13:51;;;;;;;25.53;3.63;;;;;;;3.01;100.00;97772.00;10369072;28;20279;-63
2022/01/15 11:18:54;;;;;;;13.27;2.67;;;;;;;3.22;99.66;97755.31;10370352;28;20303;-64
2022/01/15 11:23:58;;;;;;;15.63;3.50;;;;;;;3.43;97.60;97752.47;10370813;28;20227;-63
2022/01/15 11:28:59;;;;;;;18.07;3.73;;;;;;;3.41;94.69;97737.91;10373147;28;20197;-63
2022/01/15 11:34:02;;;;;;;18.80;3.03;;;;;;;3.18;93.52;97727.91;10372737;28;20319;-64
2022/01/15 11:39:07;;;;;;;22.17;3.80;;;;;;;2.75;95.96;97739.78;10372587;28;20221;-63
2022/01/15 11:44:38;;;;;;;14.27;3.43;;;;;;;2.81;97.45;97749.81;10370232;28;20213;-64
2022/01/15 11:49:44;;;;;;;23.97;4.00;;;;;;;2.72;95.95;97733.00;10406647;28;20918;-63
2022/01/15 11:54:50;;;;;;;22.40;4.37;;;;;;;2.86;95.54;97727.09;10412580;28;20213;-63
2022/01/15 11:59:56;;;;;;;20.67;4.10;;;;;;;2.52;95.44;97722.91;10412626;28;20232;-63
2022/01/15 12:05:14;;;;;;;15.83;3.77;;;;;;;2.17;98.14;97728.16;10412624;28;20262;-63
2022/01/15 12:10:17;;;;;;;15.97;3.77;;;;;;;2.73;97.14;97706.22;10412507;28;20196;-62
2022/01/15 12:15:26;;;;;;;20.50;4.53;;;;;;;2.70;97.32;97706.38;10411986;28;20234;-61
2022/01/15 12:20:26;;;;;;;19.47;3.70;;;;;;;2.81;94.76;97683.34;10411249;28;20220;-63
2022/01/15 12:25:30;;;;;;;16.07;4.67;;;;;;;2.41;98.21;97703.59;10411700;28;20289;-62
2022/01/15 12:30:33;;;;;;;18.33;4.20;;;;;;;2.60;95.77;97675.00;10411529;28;20188;-63
2022/01/15 12:35:35;;;;;;;17.13;3.63;;;;;;;2.68;96.65;97675.44;10411264;28;20291;-64
2022/01/15 12:40:42;;;;;;;19.07;3.83;;;;;;;3.13;94.89;97657.44;10411224;28;20220;-63
2022/01/15 12:45:45;;;;;;;15.00;3.30;;;;;;;1.69;99.50;97679.72;10411087;28;20213;-62
2022/01/15 12:50:57;;;;;;;24.90;3.53;;;;;;;2.02;97.76;97660.84;10411187;28;20191;-63
2022/01/15 12:55:57;;;;;;;20.03;4.20;;;;;;;1.36;100.00;97665.03;10411082;28;20584;-63
2022/01/15 13:01:01;;;;;;;16.27;5.00;;;;;;;1.52;100.00;97662.50;10410972;28;20318;-62
2022/01/15 13:06:03;;;;;;;23.63;4.53;;;;;;;1.93;100.00;97646.66;10418286;28;20691;-62
2022/01/15 13:16:39;;;;;;;14.37;3.90;;;;;;;1.84;100.00;97643.69;10419100;28;20212;-63
2022/01/15 13:21:40;;;;;;;21.80;4.03;;;;;;;1.55;99.60;97620.19;10414029;28;20239;-62
2022/01/15 13:26:46;;;;;;;14.53;3.90;;;;;;;1.18;100.00;97638.34;10416371;28;20212;-63
2022/01/15 13:31:47;;;;;;;24.53;4.10;;;;;;;0.99;100.00;97642.75;10417919;28;20193;-62
2022/01/15 13:36:47;;;;;;;24.93;4.80;;;;;;;1.46;100.00;97631.81;10417827;28;20338;-62
2022/01/15 13:41:48;;;;;;;23.27;4.83;;;;;;;1.88;100.00;97627.94;10417837;28;20277;-63
2022/01/15 13:46:50;;;;;;;19.60;4.70;;;;;;;1.42;100.00;97623.41;10417922;28;20216;-62
2022/01/15 13:57:34;;;;;;;18.23;4.20;;;;;;;2.13;100.00;97609.41;10366518;28;20659;-63
2022/01/15 14:02:34;;;;;;;13.97;3.70;;;;;;;2.40;98.39;97605.41;10417062;28;20260;-64
2022/01/15 14:07:35;;;;;;;12.40;3.30;;;;;;;1.08;100.00;97628.56;10416973;28;20773;-63
2022/01/15 14:12:36;;;;;;;19.53;3.97;;;;;;;0.88;100.00;97630.34;10416199;28;20196;-63
2022/01/15 14:17:41;;;;;;;25.23;3.83;;;;;;;1.18;100.00;97625.47;10415071;28;20689;-63
2022/01/15 14:22:49;;;;;;;18.93;4.30;;;;;;;1.05;100.00;97620.03;10415537;28;20255;-63
2022/01/15 14:28:04;;;;;;;11.93;3.07;;;;;;;1.27;100.00;97618.16;10415601;28;20226;-64
2022/01/15 14:33:05;;;;;;;21.40;4.17;;;;;;;1.45;100.00;97600.91;10415197;28;20378;-62
2022/01/15 14:38:05;;;;;;;23.63;4.10;;;;;;;0.95;100.00;97612.81;10415544;28;20316;-63
2022/01/15 14:43:06;;;;;;;21.43;3.90;;;;;;;0.67;100.00;97609.84;10415006;28;20206;-63
2022/01/15 14:48:06;;;;;;;14.40;3.33;;;;;;;0.64;100.00;97596.25;10415284;28;20192;-63
2022/01/15 14:53:08;;;;;;;16.00;3.30;;;;;;;0.92;100.00;97602.66;10414687;28;20211;-64
2022/01/15 14:58:09;;;;;;;17.73;3.70;;;;;;;0.91;100.00;97594.09;10414650;28;20224;-63
2022/01/15 15:03:09;;;;;;;29.73;4.23;;;;;;;0.67;100.00;97584.06;10414516;28;20275;-63
2022/01/15 15:08:09;;;;;;;14.90;3.67;;;;;;;0.56;100.00;97594.03;10414257;28;20195;-63
2022/01/15 15:13:10;;;;;;;18.13;3.77;;;;;;;0.84;100.00;97592.72;10414114;28;20718;-63
2022/01/15 15:18:10;;;;;;;15.73;3.63;;;;;;;0.57;100.00;97600.00;10414025;28;20309;-62
2022/01/15 15:23:11;;;;;;;25.13;4.37;;;;;;;0.77;100.00;97589.59;10413163;28;20659;-63
2022/01/15 15:28:12;;;;;;;20.90;4.07;;;;;;;0.61;100.00;97584.31;10411439;28;20693;-62
2022/01/15 15:33:12;;;;;;;15.43;3.70;;;;;;;0.39;100.00;97605.13;10413006;28;20197;-61
2022/01/15 15:38:12;;;;;;;25.67;5.17;;;;;;;-0.12;100.00;97607.44;10412943;28;20218;-60
2022/01/15 15:43:14;;;;;;;13.30;4.27;;;;;;;0.04;100.00;97604.19;10412893;28;20197;-63
2022/01/15 15:48:15;;;;;;;18.13;4.77;;;;;;;0.17;100.00;97595.81;10412695;28;20194;-61
2022/01/15 15:53:15;;;;;;;13.93;4.03;;;;;;;0.23;100.00;97593.84;10412363;28;20706;-63
2022/01/15 15:58:16;;;;;;;15.50;3.63;;;;;;;0.24;100.00;97585.22;10412381;28;20221;-63
2022/01/15 16:03:16;;;;;;;19.00;4.33;;;;;;;-0.07;100.00;97600.34;10412008;28;20204;-61
2022/01/15 16:08:16;;;;;;;17.53;5.00;;;;;;;-0.06;100.00;97596.00;10412322;28;20195;-63
2022/01/15 16:13:17;;;;;;;19.23;4.60;;;;;;;0.08;100.00;97590.25;10409815;28;20202;-61
2022/01/15 16:18:17;;;;;;;23.47;5.73;;;;;;;0.00;100.00;97585.47;10410770;28;20298;-62
2022/01/15 16:23:18;;;;;;;12.30;5.63;;;;;;;-0.45;100.00;97597.69;10410509;28;20254;-64
2022/01/15 16:28:18;;;;;;;20.53;6.30;;;;;;;-0.67;100.00;97584.94;10411323;28;20192;-64
2022/01/15 16:33:18;;;;;;;13.60;4.63;;;;;;;-0.79;100.00;97594.00;10410928;28;20195;-61
2022/01/15 16:38:19;;;;;;;21.70;5.03;;;;;;;-1.12;100.00;97586.78;10432543;22;20248;-62
2022/01/15 16:43:20;;;;;;;18.47;5.87;;;;;;;-1.25;100.00;97590.75;10411470;28;20196;-63
2022/01/15 16:48:20;;;;;;;15.90;5.37;;;;;;;-1.54;100.00;97592.72;10410834;28;20208;-62
2022/01/15 16:53:20;;;;;;;17.67;6.57;;;;;;;-1.79;100.00;97592.84;10410814;28;20203;-63
2022/01/15 16:58:21;;;;;;;28.00;11.57;;;;;;;-1.96;100.00;97588.34;10410920;28;20275;-64
2022/01/15 17:03:21;;;;;;;54.93;22.83;;;;;;;-2.27;100.00;97571.47;10411257;28;20193;-63
2022/01/15 17:08:22;;;;;;;31.47;14.57;;;;;;;-2.37;100.00;97567.59;10411326;28;20299;-64
2022/01/15 17:13:22;;;;;;;33.47;13.57;;;;;;;-2.56;100.00;97560.56;10410376;28;20195;-63
2022/01/15 17:18:23;;;;;;;72.23;27.57;;;;;;;-2.66;100.00;97564.31;10410362;28;20307;-62
2022/01/15 17:23:23;;;;;;;34.40;12.97;;;;;;;-2.75;100.00;97555.22;10409931;28;20189;-60
2022/01/15 17:28:24;;;;;;;30.83;15.73;;;;;;;-2.78;100.00;97557.88;10410091;28;20212;-64
2022/01/15 17:33:24;;;;;;;26.13;10.43;;;;;;;-2.74;100.00;97568.88;10410179;28;20216;-64
2022/01/15 17:38:24;;;;;;;26.57;12.43;;;;;;;-2.68;100.00;97563.53;10409542;28;20299;-62
2022/01/15 17:43:25;;;;;;;28.53;9.03;;;;;;;-2.74;100.00;97558.59;10410033;28;20675;-59
2022/01/15 17:48:25;;;;;;;35.27;19.90;;;;;;;-2.98;100.00;97563.69;10410911;28;20632;-62
2022/01/15 17:53:26;;;;;;;27.50;10.00;;;;;;;-2.95;100.00;97562.78;10417205;28;20566;-63
2022/01/15 17:58:27;;;;;;;25.40;9.77;;;;;;;-2.92;100.00;97565.22;10416894;28;20789;-63
2022/01/15 18:03:27;;;;;;;28.57;10.07;;;;;;;-2.99;100.00;97559.47;10416640;28;20234;-62
2022/01/15 18:08:28;;;;;;;34.97;13.87;;;;;;;-3.29;100.00;97551.91;10416612;28;20212;-64
2022/01/15 18:13:28;;;;;;;29.77;14.40;;;;;;;-3.29;100.00;97548.53;10416262;28;20200;-64
2022/01/15 18:18:28;;;;;;;27.77;12.20;;;;;;;-3.11;100.00;97545.34;10416007;28;20666;-61
2022/01/15 18:23:35;;;;;;;21.17;9.73;;;;;;;-3.07;100.00;97546.91;10416056;28;20551;-63
2022/01/15 18:28:35;;;;;;;45.83;10.87;;;;;;;-3.04;100.00;97530.59;10414932;28;20213;-64
2022/01/15 18:33:35;;;;;;;25.10;11.33;;;;;;;-3.03;100.00;97528.84;10415863;28;20180;-65
2022/01/15 18:38:36;;;;;;;26.67;10.00;;;;;;;-2.96;100.00;97523.47;10415351;28;20238;-62
2022/01/15 18:43:36;;;;;;;28.83;10.97;;;;;;;-2.90;100.00;97527.56;10415299;28;20184;-66
2022/01/15 18:48:36;;;;;;;21.77;9.37;;;;;;;-2.86;100.00;97513.75;10415252;28;20197;-64
2022/01/15 18:53:37;;;;;;;30.87;9.80;;;;;;;-2.87;100.00;97502.63;10414899;28;20201;-66
2022/01/15 18:58:39;;;;;;;20.97;10.40;;;;;;;-2.94;100.00;97488.38;10414715;28;20258;-64
2022/01/15 19:03:39;;;;;;;22.33;9.27;;;;;;;-3.09;100.00;97492.31;10414099;28;20204;-63
2022/01/15 19:08:40;;;;;;;23.83;10.60;;;;;;;-3.16;100.00;97503.66;10414124;28;20679;-64
2022/01/15 19:13:40;;;;;;;22.83;9.60;;;;;;;-3.08;100.00;97501.69;10412843;28;20195;-66
2022/01/15 19:18:40;;;;;;;27.07;9.77;;;;;;;-3.16;100.00;97531.84;10412888;28;20629;-66
2022/01/15 19:23:41;;;;;;;23.97;11.33;;;;;;;-3.36;100.00;97535.06;10413259;28;20328;-66
2022/01/15 19:28:41;;;;;;;27.60;11.03;;;;;;;-3.53;100.00;97465.63;10413464;28;20251;-65
2022/01/15 19:33:42;;;;;;;26.23;9.00;;;;;;;-3.40;100.00;97410.53;10412804;28;20283;-66
2022/01/15 19:38:43;;;;;;;24.37;9.30;;;;;;;-3.27;100.00;97450.19;10411959;28;20330;-64
2022/01/15 19:43:43;;;;;;;24.57;9.40;;;;;;;-3.38;100.00;97392.53;10412286;28;20200;-63
2022/01/15 19:48:44;;;;;;;23.40;10.40;;;;;;;-3.39;100.00;97360.97;10412430;28;20686;-65
2022/01/15 19:53:48;;;;;;;25.73;10.03;;;;;;;-3.41;100.00;97367.88;10412171;28;20703;-63
2022/01/15 19:58:48;;;;;;;25.97;9.90;;;;;;;-3.64;100.00;97349.03;10411757;28;20224;-65
2022/01/15 20:03:49;;;;;;;24.37;9.47;;;;;;;-3.87;100.00;97359.22;10411841;28;20192;-64
2022/01/15 20:08:49;;;;;;;23.07;9.63;;;;;;;-4.17;100.00;97367.84;10411332;28;20707;-63
2022/01/15 20:13:50;;;;;;;22.43;9.33;;;;;;;-4.39;100.00;97365.13;10410780;28;20693;-61
2022/01/15 20:18:50;;;;;;;26.50;8.23;;;;;;;-4.45;100.00;97378.13;10411095;28;20746;-63
2022/01/15 20:23:50;;;;;;;29.17;10.27;;;;;;;-4.34;100.00;97378.63;10411186;28;20705;-65
2022/01/15 20:28:51;;;;;;;23.13;11.10;;;;;;;-4.44;100.00;97376.38;10411615;28;20702;-63
2022/01/15 20:33:51;;;;;;;29.33;12.67;;;;;;;-4.24;100.00;97352.75;10410807;28;20685;-63
2022/01/15 20:38:52;;;;;;;30.57;11.47;;;;;;;-4.10;100.00;97330.13;10410878;28;20240;-63
2022/01/15 20:43:52;;;;;;;29.33;12.57;;;;;;;-4.05;100.00;97337.66;10410774;28;20331;-65
2022/01/15 20:48:53;;;;;;;32.40;11.77;;;;;;;-3.90;100.00;97308.97;10410809;28;20293;-65
2022/01/15 20:53:53;;;;;;;32.50;11.03;;;;;;;-3.86;100.00;97320.78;10410726;28;20254;-64
2022/01/15 20:58:54;;;;;;;28.47;12.10;;;;;;;-4.33;100.00;97324.03;10410891;28;20699;-64
2022/01/15 21:03:54;;;;;;;36.73;13.37;;;;;;;-4.56;100.00;97360.56;10411475;28;20537;-63
2022/01/15 21:08:56;;;;;;;28.17;11.30;;;;;;;-4.80;100.00;97362.13;10410838;28;20211;-64
2022/01/15 21:13:56;;;;;;;29.57;13.30;;;;;;;-4.55;100.00;97358.81;10410784;28;20203;-62
2022/01/15 21:18:56;;;;;;;26.00;11.37;;;;;;;-4.53;100.00;97342.56;10410435;28;20334;-65
2022/01/15 21:23:57;;;;;;;28.33;12.20;;;;;;;-4.58;100.00;97323.13;10412803;28;20184;-63
2022/01/15 21:28:57;;;;;;;27.83;10.57;;;;;;;-4.59;100.00;97329.97;10418760;28;20208;-62
2022/01/15 21:33:58;;;;;;;29.03;11.73;;;;;;;-4.37;100.00;97325.00;10418220;28;20640;-64
2022/01/15 21:38:58;;;;;;;26.97;11.93;;;;;;;-4.15;100.00;97324.28;10418304;28;20574;-63
2022/01/15 21:43:59;;;;;;;39.63;14.93;;;;;;;-3.83;100.00;97328.34;10418025;28;20279;-64
2022/01/15 21:48:59;;;;;;;27.63;13.03;;;;;;;-4.37;100.00;97354.88;10417801;28;20205;-64
2022/01/15 21:53:59;;;;;;;28.50;13.47;;;;;;;-4.69;100.00;97344.75;10417697;28;20192;-63
2022/01/15 21:59:02;;;;;;;26.43;12.70;;;;;;;-4.76;100.00;97344.97;10417315;28;20595;-63
2022/01/15 22:04:03;;;;;;;30.50;12.80;;;;;;;-4.99;100.00;97340.56;10417615;28;20275;-61
2022/01/15 22:09:05;;;;;;;24.00;12.03;;;;;;;-4.79;100.00;97358.69;10416910;28;20319;-65
2022/01/15 22:14:09;;;;;;;23.07;11.97;;;;;;;-4.96;100.00;97363.47;10416858;28;20196;-65
2022/01/15 22:19:10;;;;;;;24.63;12.40;;;;;;;-5.17;100.00;97347.88;10416376;28;20232;-64
2022/01/15 22:24:10;;;;;;;27.53;12.80;;;;;;;-4.96;100.00;97353.25;10416384;28;20274;-63
2022/01/15 22:29:13;;;;;;;27.57;12.13;;;;;;;-5.00;100.00;97355.06;10416603;28;20269;-65
2022/01/15 22:34:13;;;;;;;29.80;13.23;;;;;;;-5.22;100.00;97352.31;10415460;28;20219;-61
2022/01/15 22:39:14;;;;;;;37.20;13.80;;;;;;;-5.20;100.00;97358.19;10417399;22;20336;-60
2022/01/15 22:44:14;;;;;;;32.00;12.97;;;;;;;-5.05;100.00;97352.63;10375107;28;20201;-60
2022/01/15 22:49:14;;;;;;;38.00;14.50;;;;;;;-4.60;100.00;97353.84;10374606;28;20223;-61
2022/01/15 22:54:18;;;;;;;31.37;14.47;;;;;;;-4.60;100.00;97355.59;10374595;28;20275;-61
2022/01/15 22:59:18;;;;;;;34.77;14.50;;;;;;;-4.54;100.00;97332.38;10374183;28;20228;-58
2022/01/15 23:04:19;;;;;;;33.50;15.50;;;;;;;-4.47;100.00;97339.00;10374029;28;20197;-59
2022/01/15 23:09:19;;;;;;;33.80;14.33;;;;;;;-4.45;100.00;97344.88;10372711;28;20793;-61
2022/01/15 23:14:27;;;;;;;30.37;13.53;;;;;;;-4.54;100.00;97337.50;10372040;28;20193;-60
2022/01/15 23:19:32;;;;;;;27.37;12.80;;;;;;;-4.61;100.00;97315.56;10372989;28;20225;-61
2022/01/15 23:24:33;;;;;;;28.13;12.10;;;;;;;-4.73;100.00;97315.06;10373075;28;20259;-61
2022/01/15 23:29:33;;;;;;;31.60;12.40;;;;;;;-4.72;100.00;97298.81;10373023;28;20576;-61